createdAt,value
2019-05-14T00:01:42.192Z,103642.43
2019-05-14T00:04:11.705Z,103637.16
2019-05-14T00:06:41.739Z,103635.77
2019-05-14T00:09:12.119Z,103625.52
2019-05-14T00:11:42.220Z,103635.40
2019-05-14T00:14:11.811Z,103628.70
2019-05-14T00:16:42.431Z,103620.66
2019-05-14T00:19:11.896Z,103625.51
2019-05-14T00:21:42.415Z,103617.95
2019-05-14T00:24:32.142Z,103613.92
2019-05-14T00:27:02.066Z,103612.17
2019-05-14T00:29:32.168Z,103611.28
2019-05-14T00:32:02.001Z,103609.53
2019-05-14T00:34:31.617Z,103592.98
2019-05-14T00:37:01.532Z,103597.05
2019-05-14T00:39:32.008Z,103594.80
2019-05-14T00:42:01.769Z,103588.56
2019-05-14T00:44:32.378Z,103590.33
2019-05-14T00:47:02.260Z,103591.24
2019-05-14T00:49:31.773Z,103593.46
2019-05-14T00:52:02.366Z,103595.30
2019-05-14T00:54:32.242Z,103597.48
2019-05-14T00:57:01.710Z,103601.08
2019-05-14T00:59:32.199Z,103601.08
2019-05-14T01:02:03.113Z,103598.91
2019-05-14T01:04:32.493Z,103599.80
2019-05-14T01:07:01.783Z,103610.94
2019-05-14T01:09:31.572Z,103610.05
2019-05-14T01:12:01.881Z,103606.46
2019-05-14T01:14:31.695Z,103610.96
2019-05-14T01:17:01.988Z,103601.16
2019-05-14T01:19:31.691Z,103610.13
2019-05-14T01:22:01.682Z,103611.91
2019-05-14T01:24:32.173Z,103609.65
2019-05-14T01:27:01.813Z,103611.02
2019-05-14T01:29:31.796Z,103614.58
2019-05-14T01:32:01.365Z,103608.31
2019-05-14T01:34:32.397Z,103612.81
2019-05-14T01:37:02.452Z,103611.44
2019-05-14T01:39:32.324Z,103598.03
2019-05-14T01:42:02.428Z,103607.45
2019-05-14T01:44:32.012Z,103606.13
2019-05-14T01:47:01.936Z,103607.92
2019-05-14T01:49:31.873Z,103605.22
2019-05-14T01:52:01.790Z,103602.57
2019-05-14T01:54:31.752Z,103600.76
2019-05-14T01:57:02.072Z,103594.97
2019-05-14T01:59:32.355Z,103602.54
2019-05-14T02:02:02.384Z,103603.02
2019-05-14T02:04:31.928Z,103599.41
2019-05-14T02:07:02.302Z,103600.37
2019-05-14T02:09:32.007Z,103603.45
2019-05-14T02:12:02.168Z,103601.66
2019-05-14T02:14:31.609Z,103601.23
2019-05-14T02:17:01.907Z,103600.78
2019-05-14T02:19:31.844Z,103594.56
2019-05-14T02:22:02.176Z,103611.94
2019-05-14T02:24:32.153Z,103604.34
2019-05-14T02:27:01.997Z,103593.66
2019-05-14T02:29:32.076Z,103601.68
2019-05-14T02:32:01.446Z,103593.67
2019-05-14T02:34:30.607Z,103595.00
2019-05-14T02:37:00.560Z,103600.81
2019-05-14T02:39:29.903Z,103593.22
2019-05-14T02:41:59.165Z,103591.45
2019-05-14T02:44:29.759Z,103585.21
2019-05-14T02:46:59.761Z,103586.09
2019-05-14T02:49:30.906Z,103582.97
2019-05-14T02:52:00.068Z,103576.25
2019-05-14T02:54:29.936Z,103575.83
2019-05-14T02:57:00.058Z,103577.17
2019-05-14T02:59:30.498Z,103572.27
2019-05-14T03:02:00.098Z,103574.92
2019-05-14T03:04:30.047Z,103576.28
2019-05-14T03:07:00.860Z,103570.06
2019-05-14T03:09:30.139Z,103572.27
2019-05-14T03:11:59.748Z,103564.69
2019-05-14T03:14:30.125Z,103473.38
2019-05-14T03:16:59.816Z,103560.23
2019-05-14T03:19:29.746Z,103555.31
2019-05-14T03:22:00.203Z,103550.42
2019-05-14T03:24:29.809Z,103555.79
2019-05-14T03:26:59.041Z,103564.70
2019-05-14T03:29:30.835Z,103564.70
2019-05-14T03:32:03.269Z,103565.56
2019-05-14T03:34:33.190Z,103561.58
2019-05-14T03:37:03.796Z,103562.45
2019-05-14T03:39:32.655Z,103562.89
2019-05-14T03:42:02.110Z,103550.88
2019-05-14T03:44:31.369Z,103562.47
2019-05-14T03:47:05.009Z,103556.66
2019-05-14T03:49:31.543Z,103550.89
2019-05-14T03:52:00.800Z,103558.02
2019-05-14T03:54:30.241Z,103551.33
2019-05-14T03:57:00.296Z,103546.44
2019-05-14T03:59:29.904Z,103541.95
2019-05-14T04:01:59.895Z,103541.97
2019-05-14T04:04:30.018Z,103537.08
2019-05-14T04:07:01.859Z,103526.84
2019-05-14T04:09:33.583Z,103525.94
2019-05-14T04:12:04.393Z,103523.70
2019-05-14T04:14:36.115Z,103521.02
2019-05-14T04:17:11.083Z,103518.80
2019-05-14T04:19:40.808Z,103515.22
2019-05-14T04:22:13.596Z,103513.02
2019-05-14T04:24:43.497Z,103513.88
2019-05-14T04:27:15.866Z,103511.67
2019-05-14T04:29:49.600Z,103514.80
2019-05-14T04:32:20.400Z,103513.47
2019-05-14T04:34:50.671Z,103513.89
2019-05-14T04:37:20.367Z,103518.35
2019-05-14T04:39:50.477Z,103520.16
2019-05-14T04:42:20.502Z,103518.80
2019-05-14T04:44:50.689Z,103522.80
2019-05-14T04:47:31.573Z,103525.91
2019-05-14T04:49:50.994Z,103531.28
2019-05-14T04:52:20.777Z,103528.16
2019-05-14T04:54:50.368Z,103527.27
2019-05-14T04:57:22.657Z,103530.38
2019-05-14T04:59:50.689Z,103529.07
2019-05-14T05:02:20.163Z,103525.03
2019-05-14T05:04:50.686Z,103527.29
2019-05-14T05:07:20.354Z,103524.59
2019-05-14T05:09:50.368Z,103517.05
2019-05-14T05:12:19.960Z,103510.35
2019-05-14T05:14:49.483Z,103517.92
2019-05-14T05:17:19.663Z,103514.34
2019-05-14T05:19:51.645Z,103508.08
2019-05-14T05:22:19.922Z,103512.53
2019-05-14T05:24:49.121Z,103516.53
2019-05-14T05:27:18.625Z,103517.84
2019-05-14T05:29:48.607Z,103520.11
2019-05-14T05:32:19.374Z,103516.51
2019-05-14T05:34:49.830Z,103516.51
2019-05-14T05:37:19.747Z,103511.13
2019-05-14T05:39:49.283Z,103512.47
2019-05-14T05:42:18.992Z,103499.14
2019-05-14T05:44:48.518Z,103501.79
2019-05-14T05:47:18.487Z,103505.78
2019-05-14T05:49:48.767Z,103510.70
2019-05-14T05:52:19.083Z,103507.63
2019-05-14T05:54:48.975Z,103505.34
2019-05-14T05:57:18.871Z,103511.59
2019-05-14T05:59:48.667Z,103509.33
2019-05-14T06:02:18.561Z,103509.76
2019-05-14T06:04:50.409Z,103515.53
2019-05-14T06:07:19.619Z,103514.69
2019-05-14T06:09:48.797Z,103508.91
2019-05-14T06:12:18.980Z,103508.45
2019-05-14T06:14:48.890Z,103509.36
2019-05-14T06:17:19.218Z,103511.09
2019-05-14T06:19:48.857Z,103518.67
2019-05-14T06:22:18.915Z,103515.14
2019-05-14T06:24:48.769Z,103513.80
2019-05-14T06:27:18.323Z,103511.52
2019-05-14T06:29:48.944Z,103519.58
2019-05-14T06:32:18.787Z,103513.28
2019-05-14T06:34:48.917Z,103512.44
2019-05-14T06:37:19.109Z,103503.49
2019-05-14T06:39:48.687Z,103504.37
2019-05-14T06:42:19.262Z,103505.63
2019-05-14T06:44:49.369Z,103511.41
2019-05-14T06:47:18.665Z,103513.16
2019-05-14T06:49:48.779Z,103514.89
2019-05-14T06:52:18.995Z,103509.09
2019-05-14T06:54:49.683Z,103506.12
2019-05-14T06:57:19.052Z,103507.23
2019-05-14T06:59:48.554Z,103503.40
2019-05-14T07:02:19.354Z,103502.53
2019-05-14T07:04:48.853Z,103509.05
2019-05-14T07:07:20.660Z,103503.35
2019-05-14T07:09:49.039Z,103494.23
2019-05-14T07:12:19.155Z,103494.23
2019-05-14T07:14:48.562Z,103498.79
2019-05-14T07:17:18.368Z,103485.81
2019-05-14T07:19:49.062Z,103485.81
2019-05-14T07:22:19.555Z,103490.58
2019-05-14T07:24:49.846Z,103493.06
2019-05-14T07:27:19.454Z,103507.28
2019-05-14T07:29:49.325Z,103507.28
2019-05-14T07:32:19.306Z,103490.80
2019-05-14T07:34:48.625Z,103488.04
2019-05-14T07:37:18.188Z,103497.29
2019-05-14T07:39:48.671Z,103486.84
2019-05-14T07:42:18.429Z,103490.04
2019-05-14T07:44:48.546Z,103495.67
2019-05-14T07:47:18.744Z,103471.16
2019-05-14T07:49:48.954Z,103494.03
2019-05-14T07:52:19.695Z,103490.02
2019-05-14T07:54:49.220Z,103494.08
2019-05-14T07:57:19.113Z,103497.23
2019-05-14T07:59:48.641Z,103492.09
2019-05-14T08:02:19.593Z,103484.98
2019-05-14T08:04:48.910Z,103491.04
2019-05-14T08:07:18.157Z,103482.12
2019-05-14T08:09:48.037Z,103481.50
2019-05-14T08:12:19.267Z,103483.90
2019-05-14T08:15:02.164Z,103484.94
2019-05-14T08:17:19.471Z,103487.58
2019-05-14T08:19:49.320Z,103428.45
2019-05-14T08:22:18.812Z,103476.40
2019-05-14T08:24:49.102Z,103473.94
2019-05-14T08:27:19.237Z,103461.13
2019-05-14T08:29:48.962Z,103464.08
2019-05-14T08:32:19.082Z,103455.01
2019-05-14T08:34:48.607Z,103453.33
2019-05-14T08:37:19.092Z,103455.55
2019-05-14T08:39:48.889Z,103453.91
2019-05-14T08:42:18.779Z,103436.37
2019-05-14T08:44:51.223Z,103451.31
2019-05-14T08:47:19.142Z,103446.12
2019-05-14T08:49:50.692Z,103440.14
2019-05-14T08:52:19.560Z,103433.31
2019-05-14T08:54:53.693Z,103426.19
2019-05-14T08:57:20.056Z,103422.27
2019-05-14T08:59:49.396Z,103428.66
2019-05-14T09:02:19.631Z,103419.44
2019-05-14T09:04:54.322Z,103418.26
2019-05-14T09:07:19.917Z,103421.47
2019-05-14T09:09:49.094Z,103425.19
2019-05-14T09:12:18.743Z,103420.88
2019-05-14T09:14:48.515Z,103410.30
2019-05-14T09:17:18.545Z,103411.84
2019-05-14T09:20:01.725Z,103412.56
2019-05-14T09:22:18.909Z,103403.13
2019-05-14T09:24:49.204Z,103438.69
2019-05-14T09:27:19.229Z,103413.68
2019-05-14T09:29:48.750Z,103414.20
2019-05-14T09:32:19.026Z,103406.67
2019-05-14T09:34:48.870Z,103417.91
2019-05-14T09:37:19.222Z,103417.91
2019-05-14T09:39:48.936Z,103398.13
2019-05-14T09:42:19.489Z,103440.30
2019-05-14T09:44:49.271Z,103395.28
2019-05-14T09:47:19.054Z,103403.16
2019-05-14T09:49:49.091Z,103403.59
2019-05-14T09:52:18.797Z,103393.88
2019-05-14T09:54:49.606Z,103397.20
2019-05-14T09:57:19.104Z,103389.30
2019-05-14T09:59:48.227Z,103383.74
2019-05-14T10:02:17.424Z,103391.30
2019-05-14T10:04:49.063Z,103380.48
2019-05-14T10:07:17.471Z,103381.42
2019-05-14T10:09:49.060Z,103369.98
2019-05-14T10:12:17.580Z,103373.45
2019-05-14T10:14:48.710Z,103365.61
2019-05-14T10:17:19.406Z,103359.69
2019-05-14T10:19:49.863Z,103355.26
2019-05-14T10:22:19.968Z,103331.18
2019-05-14T10:24:49.371Z,103333.82
2019-05-14T10:27:19.045Z,103324.73
2019-05-14T10:29:48.369Z,103325.59
2019-05-14T10:32:18.714Z,103321.97
2019-05-14T10:34:48.590Z,103319.83
2019-05-14T10:37:19.167Z,103323.06
2019-05-14T10:39:48.496Z,103317.11
2019-05-14T10:42:20.162Z,103316.97
2019-05-14T10:44:48.509Z,103326.19
2019-05-14T10:47:18.765Z,103325.25
2019-05-14T10:49:48.245Z,103317.63
2019-05-14T10:52:19.697Z,103321.69
2019-05-14T10:54:55.778Z,103321.22
2019-05-14T10:57:19.186Z,103320.73
2019-05-14T10:59:48.418Z,103322.75
2019-05-14T11:02:18.556Z,103315.29
2019-05-14T11:04:48.401Z,103306.39
2019-05-14T11:07:18.558Z,103297.09
2019-05-14T11:09:48.607Z,103303.67
2019-05-14T11:12:19.325Z,103297.65
2019-05-14T11:14:49.348Z,103293.81
2019-05-14T11:17:19.590Z,103303.47
2019-05-14T11:19:49.014Z,103306.59
2019-05-14T11:22:18.517Z,103297.17
2019-05-14T11:24:49.207Z,103273.41
2019-05-14T11:27:18.782Z,103273.41
2019-05-14T11:29:49.141Z,103256.43
2019-05-14T11:32:18.628Z,103265.32
2019-05-14T11:34:47.848Z,103257.41
2019-05-14T11:37:18.705Z,103248.36
2019-05-14T11:39:48.697Z,103266.14
2019-05-14T11:42:19.879Z,103261.44
2019-05-14T11:44:48.967Z,103247.34
2019-05-14T11:47:18.267Z,103270.11
2019-05-14T11:49:49.195Z,103255.14
2019-05-14T11:52:18.292Z,103255.14
2019-05-14T11:54:49.391Z,103258.88
2019-05-14T11:57:19.286Z,103258.91
2019-05-14T11:59:49.030Z,103216.84
2019-05-14T12:02:18.906Z,103230.11
2019-05-14T12:04:48.323Z,103230.11
2019-05-14T12:07:18.670Z,103227.55
2019-05-14T12:09:47.961Z,103235.77
2019-05-14T12:12:19.007Z,103229.53
2019-05-14T12:14:48.484Z,103222.09
2019-05-14T12:17:17.820Z,103217.61
2019-05-14T12:19:48.456Z,103221.22
2019-05-14T12:22:19.052Z,103221.22
2019-05-14T12:24:49.408Z,103185.63
2019-05-14T12:27:19.261Z,103170.75
2019-05-14T12:29:49.741Z,103207.91
2019-05-14T12:32:19.415Z,103209.44
2019-05-14T12:34:48.993Z,103201.46
2019-05-14T12:37:18.733Z,103204.45
2019-05-14T12:39:48.002Z,103183.61
2019-05-14T12:42:19.374Z,103185.58
2019-05-14T12:44:48.093Z,103172.68
2019-05-14T12:47:18.824Z,103172.54
2019-05-14T12:49:49.067Z,103169.98
2019-05-14T12:52:25.447Z,103166.60
2019-05-14T12:54:50.267Z,103164.77
2019-05-14T12:57:19.592Z,103172.93
2019-05-14T12:59:48.834Z,103166.30
2019-05-14T13:02:18.749Z,103166.70
2019-05-14T13:04:48.716Z,103172.63
2019-05-14T13:07:19.231Z,103166.20
2019-05-14T13:09:49.121Z,103175.64
2019-05-14T13:12:19.064Z,103163.50
2019-05-14T13:14:49.028Z,103159.73
2019-05-14T13:17:18.826Z,103156.41
2019-05-14T13:19:48.800Z,103152.31
2019-05-14T13:22:25.641Z,103131.94
2019-05-14T13:24:49.433Z,103128.20
2019-05-14T13:27:19.189Z,103131.61
2019-05-14T13:29:48.936Z,103119.52
2019-05-14T13:32:19.579Z,103112.73
2019-05-14T13:34:48.979Z,103110.83
2019-05-14T13:37:18.273Z,103113.77
2019-05-14T13:39:52.828Z,103105.07
2019-05-14T13:42:18.754Z,103101.03
2019-05-14T13:44:48.114Z,103109.70
2019-05-14T13:47:18.215Z,103094.09
2019-05-14T13:49:48.706Z,103102.08
2019-05-14T13:52:18.677Z,103101.14
2019-05-14T13:54:48.284Z,103091.89
2019-05-14T13:57:19.385Z,103091.81
2019-05-14T13:59:51.195Z,103087.34
2019-05-14T14:02:20.374Z,103093.40
2019-05-14T14:04:49.556Z,103083.79
2019-05-14T14:07:19.084Z,103078.61
2019-05-14T14:09:49.858Z,103081.26
2019-05-14T14:12:19.161Z,103079.91
2019-05-14T14:14:49.306Z,103072.73
2019-05-14T14:17:18.800Z,103064.94
2019-05-14T14:19:48.393Z,103071.34
2019-05-14T14:22:19.533Z,103065.42
2019-05-14T14:24:48.812Z,103067.86
2019-05-14T14:27:19.652Z,103068.55
2019-05-14T14:29:49.414Z,103061.11
2019-05-14T14:32:19.071Z,103063.24
2019-05-14T14:34:48.355Z,103063.81
2019-05-14T14:37:19.242Z,103061.94
2019-05-14T14:39:48.951Z,103053.58
2019-05-14T14:42:19.582Z,103053.53
2019-05-14T14:44:48.940Z,103065.42
2019-05-14T14:47:19.064Z,103051.31
2019-05-14T14:49:51.654Z,103056.80
2019-05-14T14:52:20.118Z,103052.88
2019-05-14T14:54:49.459Z,103049.92
2019-05-14T14:57:19.954Z,103041.52
2019-05-14T14:59:49.522Z,103043.00
2019-05-14T15:02:19.690Z,103039.38
2019-05-14T15:04:50.044Z,103042.27
2019-05-14T15:07:19.500Z,103034.85
2019-05-14T15:09:48.961Z,103024.36
2019-05-14T15:12:19.984Z,103024.42
2019-05-14T15:14:48.991Z,103018.80
2019-05-14T15:17:18.722Z,103014.52
2019-05-14T15:19:49.955Z,102999.94
2019-05-14T15:22:21.339Z,103000.52
2019-05-14T15:24:50.495Z,103008.38
2019-05-14T15:27:19.680Z,103012.72
2019-05-14T15:29:49.025Z,102997.09
2019-05-14T15:32:19.635Z,102992.56
2019-05-14T15:34:50.623Z,102990.69
2019-05-14T15:37:22.164Z,102997.98
2019-05-14T15:39:58.775Z,102995.61
2019-05-14T15:42:28.475Z,102982.48
2019-05-14T15:44:59.777Z,102989.25
2019-05-14T15:47:29.705Z,102984.61
2019-05-14T15:49:59.549Z,102984.56
2019-05-14T15:52:29.399Z,102986.69
2019-05-14T15:54:58.675Z,102977.28
2019-05-14T15:57:28.840Z,102976.70
2019-05-14T16:00:00.837Z,102974.72
2019-05-14T16:02:29.804Z,102968.59
2019-05-14T16:04:59.306Z,102959.19
2019-05-14T16:07:29.339Z,102960.02
2019-05-14T16:10:00.977Z,102956.97
2019-05-14T16:12:32.244Z,102953.84
2019-05-14T16:15:00.436Z,102947.81
2019-05-14T16:17:30.371Z,102944.39
2019-05-14T16:19:59.985Z,102941.64
2019-05-14T16:22:29.998Z,102941.24
2019-05-14T16:25:00.991Z,102936.61
2019-05-14T16:27:30.078Z,102939.09
2019-05-14T16:29:59.261Z,102939.75
2019-05-14T16:32:28.588Z,102935.33
2019-05-14T16:34:58.112Z,102921.77
2019-05-14T16:37:28.230Z,102938.85
2019-05-14T16:39:57.489Z,102929.59
2019-05-14T16:42:29.176Z,102925.59
2019-05-14T16:44:57.565Z,102930.45
2019-05-14T16:47:28.784Z,102925.30
2019-05-14T16:49:59.109Z,102924.98
2019-05-14T16:52:28.761Z,102919.44
2019-05-14T16:55:16.978Z,102916.41
2019-05-14T16:57:29.412Z,102922.41
2019-05-14T16:59:58.713Z,102921.00
2019-05-14T17:02:29.616Z,102919.65
2019-05-14T17:04:59.125Z,102916.23
2019-05-14T17:07:28.857Z,102911.97
2019-05-14T17:09:58.519Z,102905.61
2019-05-14T17:12:30.793Z,102908.45
2019-05-14T17:14:58.778Z,102914.25
2019-05-14T17:17:27.965Z,102915.59
2019-05-14T17:19:58.745Z,102910.57
2019-05-14T17:22:33.227Z,102908.23
2019-05-14T17:24:58.980Z,102895.77
2019-05-14T17:27:28.704Z,102905.36
2019-05-14T17:29:59.002Z,102898.95
2019-05-14T17:32:30.347Z,102892.56
2019-05-14T17:34:59.188Z,102887.02
2019-05-14T17:37:28.640Z,102875.40
2019-05-14T17:39:58.253Z,102890.89
2019-05-14T17:42:28.510Z,102889.65
2019-05-14T17:44:58.901Z,102897.65
2019-05-14T17:47:29.063Z,102893.69
2019-05-14T17:49:59.033Z,102902.28
2019-05-14T17:52:30.273Z,102893.31
2019-05-14T17:54:59.517Z,102890.27
2019-05-14T17:57:35.019Z,102880.21
2019-05-14T17:59:59.599Z,102885.98
2019-05-14T18:02:28.873Z,102878.98
2019-05-14T18:04:59.334Z,102878.98
2019-05-14T18:07:28.716Z,102878.06
2019-05-14T18:09:58.873Z,102873.59
2019-05-14T18:12:30.551Z,102876.71
2019-05-14T18:14:59.013Z,102876.00
2019-05-14T18:17:29.780Z,102879.77
2019-05-14T18:19:58.991Z,102868.01
2019-05-14T18:22:28.757Z,102867.77
2019-05-14T18:24:59.248Z,102871.77
2019-05-14T18:27:29.279Z,102872.64
2019-05-14T18:29:59.315Z,102869.02
2019-05-14T18:32:28.578Z,102860.97
2019-05-14T18:34:58.249Z,102864.02
2019-05-14T18:37:29.002Z,102865.77
2019-05-14T18:39:58.615Z,102860.50
2019-05-14T18:42:29.677Z,102858.97
2019-05-14T18:44:59.071Z,102859.17
2019-05-14T18:47:29.101Z,102856.13
2019-05-14T18:49:59.571Z,102853.14
2019-05-14T18:52:30.777Z,102856.71
2019-05-14T18:54:59.980Z,102851.55
2019-05-14T18:57:29.221Z,102841.86
2019-05-14T18:59:58.440Z,102851.31
2019-05-14T19:02:29.319Z,102853.09
2019-05-14T19:04:58.499Z,102855.36
2019-05-14T19:07:28.671Z,102857.33
2019-05-14T19:09:58.799Z,102858.48
2019-05-14T19:12:28.927Z,102861.76
2019-05-14T19:14:58.961Z,102865.18
2019-05-14T19:17:28.559Z,102861.76
2019-05-14T19:19:58.900Z,102862.09
2019-05-14T19:22:28.847Z,102867.63
2019-05-14T19:24:58.789Z,102873.09
2019-05-14T19:27:28.583Z,102882.43
2019-05-14T19:29:59.491Z,102886.83
2019-05-14T19:32:28.899Z,102885.13
2019-05-14T19:34:58.075Z,102877.47
2019-05-14T19:37:29.056Z,102891.72
2019-05-14T19:39:58.787Z,102883.33
2019-05-14T19:42:28.792Z,102888.32
2019-05-14T19:44:59.795Z,102885.20
2019-05-14T19:47:29.057Z,102887.02
2019-05-14T19:49:58.249Z,102885.59
2019-05-14T19:52:30.518Z,102892.90
2019-05-14T19:54:59.711Z,102900.23
2019-05-14T19:57:29.155Z,102898.54
2019-05-14T19:59:58.374Z,102900.14
2019-05-14T20:02:28.690Z,102896.36
2019-05-14T20:04:58.824Z,102896.62
2019-05-14T20:07:28.095Z,102901.27
2019-05-14T20:09:58.791Z,102895.40
2019-05-14T20:12:28.762Z,102895.69
2019-05-14T20:14:58.422Z,102891.65
2019-05-14T20:17:28.314Z,102895.30
2019-05-14T20:19:57.967Z,102893.52
2019-05-14T20:22:28.366Z,102880.53
2019-05-14T20:24:58.906Z,102880.53
2019-05-14T20:27:28.342Z,102880.77
2019-05-14T20:29:58.083Z,102886.83
2019-05-14T20:32:27.351Z,102875.38
2019-05-14T20:34:58.058Z,102891.23
2019-05-14T20:37:29.119Z,102877.37
2019-05-14T20:39:59.081Z,102877.37
2019-05-14T20:42:29.005Z,102880.53
2019-05-14T20:44:58.257Z,102889.09
2019-05-14T20:47:28.208Z,102880.26
2019-05-14T20:49:58.025Z,102876.81
2019-05-14T20:52:28.378Z,102876.81
2019-05-14T20:54:58.334Z,102881.37
2019-05-14T20:57:32.746Z,102879.62
2019-05-14T20:59:58.889Z,102884.57
2019-05-14T21:02:29.526Z,102884.57
2019-05-14T21:05:04.328Z,102882.47
2019-05-14T21:07:29.760Z,102882.47
2019-05-14T21:09:58.967Z,102881.72
2019-05-14T21:12:28.946Z,102871.46
2019-05-14T21:14:59.100Z,102872.61
2019-05-14T21:17:28.472Z,102866.78
2019-05-14T21:19:57.679Z,102880.72
2019-05-14T21:22:29.065Z,102870.25
2019-05-14T21:24:58.840Z,102870.03
2019-05-14T21:27:41.274Z,102864.11
2019-05-14T21:29:58.952Z,102867.89
2019-05-14T21:32:28.415Z,102866.66
2019-05-14T21:34:58.513Z,102860.55
2019-05-14T21:37:28.401Z,102863.67
2019-05-14T21:39:58.315Z,102867.38
2019-05-14T21:42:28.550Z,102848.92
2019-05-14T21:44:58.421Z,102857.78
2019-05-14T21:47:28.573Z,102857.16
2019-05-14T21:49:58.200Z,102844.39
2019-05-14T21:52:28.987Z,102859.38
2019-05-14T21:54:58.670Z,102852.76
2019-05-14T21:57:28.396Z,102861.26
2019-05-14T21:59:58.844Z,102851.62
2019-05-14T22:02:30.639Z,102855.79
2019-05-14T22:05:01.505Z,102847.63
2019-05-14T22:07:32.005Z,102849.63
2019-05-14T22:10:01.230Z,102847.99
2019-05-14T22:12:30.395Z,102840.77
2019-05-14T22:14:59.611Z,102843.56
2019-05-14T22:17:31.747Z,102839.92
2019-05-14T22:20:00.969Z,102845.73
2019-05-14T22:22:30.818Z,102842.55
2019-05-14T22:25:00.162Z,102844.22
2019-05-14T22:27:29.291Z,102846.14
2019-05-14T22:29:59.477Z,102854.14
2019-05-14T22:32:28.781Z,102846.24
2019-05-14T22:34:59.002Z,102846.02
2019-05-14T22:37:28.208Z,102843.29
2019-05-14T22:39:59.033Z,102848.23
2019-05-14T22:42:28.351Z,102846.72
2019-05-14T22:44:58.296Z,102847.59
2019-05-14T22:47:27.687Z,102848.20
2019-05-14T22:49:59.135Z,102843.63
2019-05-14T22:52:28.397Z,102837.45
2019-05-14T22:54:59.754Z,102840.94
2019-05-14T22:57:31.124Z,102837.55
2019-05-14T22:59:59.864Z,102837.98
2019-05-14T23:02:29.084Z,102833.69
2019-05-14T23:04:58.572Z,102833.92
2019-05-14T23:07:27.793Z,102840.44
2019-05-14T23:09:59.004Z,102842.95
2019-05-14T23:12:28.729Z,102844.33
2019-05-14T23:14:58.190Z,102844.73
2019-05-14T23:17:28.081Z,102843.59
2019-05-14T23:19:58.056Z,102839.38
2019-05-14T23:22:29.561Z,102842.81
2019-05-14T23:24:59.181Z,102847.69
2019-05-14T23:27:48.158Z,102847.69
2019-05-14T23:30:20.715Z,102834.55
2019-05-14T23:32:50.002Z,102836.73
2019-05-14T23:35:19.327Z,102836.56
2019-05-14T23:37:49.184Z,102831.45
2019-05-14T23:40:18.430Z,102831.45
2019-05-14T23:42:49.045Z,102826.79
2019-05-14T23:45:18.981Z,102824.45
2019-05-14T23:47:49.268Z,102822.61
2019-05-14T23:50:18.699Z,102827.23
2019-05-14T23:52:49.303Z,102812.91
2019-05-14T23:55:18.801Z,102822.20
2019-05-14T23:57:48.342Z,102822.20
